Time;durP1;ratioP1;P1;durP2;ratioP2;P2;SDS_P1;SDS_P2;PMS_P1;PMS_P2;Temp;Humidity;BMP_temperature;BMP_pressure;BME280_temperature;BME280_humidity;BME280_pressure;Samples;Min_cycle;Max_cycle;Signal;HPM_P1;HPM_P2
2022/03/20 00:00:53;;;;;;;26.63;19.63;;;3.40;99.90;;;;;;5049641;28;20448;-63
2022/03/20 00:03:21;;;;;;;26.27;20.50;;;3.40;99.90;;;;;;5049661;28;20531;-64
2022/03/20 00:05:51;;;;;;;23.10;19.17;;;3.50;99.90;;;;;;5048152;28;20444;-64
2022/03/20 00:08:18;;;;;;;24.63;19.63;;;3.50;99.90;;;;;;5049095;28;20554;-64
2022/03/20 00:10:47;;;;;;;25.70;19.80;;;3.50;99.90;;;;;;5049426;28;20549;-63
2022/03/20 00:13:16;;;;;;;23.20;19.40;;;3.40;99.90;;;;;;5049360;28;20539;-63
2022/03/20 00:15:44;;;;;;;26.03;21.73;;;3.40;99.90;;;;;;5048278;28;20546;-64
2022/03/20 00:18:12;;;;;;;28.77;20.27;;;3.40;99.90;;;;;;5049114;28;20546;-64
2022/03/20 00:20:42;;;;;;;23.80;20.23;;;3.40;99.90;;;;;;5049388;28;20451;-64
2022/03/20 00:23:11;;;;;;;22.73;18.27;;;3.30;99.90;;;;;;5049554;28;20451;-64
2022/03/20 00:25:39;;;;;;;24.83;20.13;;;3.40;99.90;;;;;;5048270;28;20475;-65
2022/03/20 00:28:06;;;;;;;24.70;19.43;;;3.50;99.90;;;;;;5049165;28;20503;-63
2022/03/20 00:30:34;;;;;;;23.70;19.13;;;3.50;99.90;;;;;;5049144;28;20494;-64
2022/03/20 00:33:01;;;;;;;23.90;18.43;;;3.50;99.90;;;;;;5048902;28;20944;-64
2022/03/20 00:35:28;;;;;;;22.53;18.20;;;3.50;99.90;;;;;;5048095;28;20817;-64
2022/03/20 00:37:55;;;;;;;24.53;20.07;;;3.60;99.90;;;;;;5049264;28;20472;-64
2022/03/20 00:40:23;;;;;;;21.63;17.37;;;3.70;99.90;;;;;;5049056;28;20539;-64
2022/03/20 00:42:50;;;;;;;29.13;19.83;;;3.60;99.90;;;;;;5050283;28;20458;-64
2022/03/20 00:45:17;;;;;;;24.07;18.50;;;3.50;99.90;;;;;;5051465;28;20977;-64
2022/03/20 00:47:44;;;;;;;25.17;20.27;;;3.60;99.90;;;;;;5052574;28;21019;-64
2022/03/20 00:50:11;;;;;;;22.90;17.50;;;3.60;99.90;;;;;;5052859;28;20444;-64
2022/03/20 00:52:38;;;;;;;21.33;17.53;;;3.50;99.90;;;;;;5052657;28;20574;-64
2022/03/20 00:55:05;;;;;;;24.40;19.00;;;3.50;99.90;;;;;;5051513;28;20455;-64
2022/03/20 00:57:33;;;;;;;23.27;19.13;;;3.50;99.90;;;;;;5052556;28;20472;-65
2022/03/20 01:00:00;;;;;;;24.23;18.87;;;3.60;99.90;;;;;;5052615;28;20511;-64
2022/03/20 01:02:27;;;;;;;26.57;20.13;;;3.60;99.90;;;;;;5052529;28;20938;-64
2022/03/20 01:04:54;;;;;;;23.03;18.03;;;3.60;99.90;;;;;;5051341;28;20532;-64
2022/03/20 01:07:21;;;;;;;22.53;18.30;;;3.60;99.90;;;;;;5052441;28;20888;-64
2022/03/20 01:09:48;;;;;;;23.37;18.07;;;3.60;99.90;;;;;;5052647;28;20493;-63
2022/03/20 01:12:14;;;;;;;24.13;18.23;;;3.50;99.90;;;;;;5052226;28;20993;-65
2022/03/20 01:14:42;;;;;;;22.60;18.23;;;3.40;99.90;;;;;;5051231;28;20454;-64
2022/03/20 01:17:09;;;;;;;24.63;18.90;;;3.40;99.90;;;;;;5052340;28;20459;-64
2022/03/20 01:19:37;;;;;;;25.70;19.57;;;3.40;99.90;;;;;;5052211;28;21185;-65
2022/03/20 01:22:04;;;;;;;22.17;18.73;;;3.40;99.90;;;;;;5052353;28;20509;-64
2022/03/20 01:24:31;;;;;;;30.10;22.57;;;3.30;99.90;;;;;;5051158;28;20448;-63
2022/03/20 01:26:58;;;;;;;24.83;20.87;;;3.30;99.90;;;;;;5051911;28;20468;-65
2022/03/20 01:29:25;;;;;;;28.53;19.50;;;3.30;99.90;;;;;;5052376;28;20448;-65
2022/03/20 01:31:53;;;;;;;26.33;18.93;;;3.40;99.90;;;;;;5052005;28;20487;-64
2022/03/20 01:34:20;;;;;;;24.63;18.97;;;3.40;99.90;;;;;;5051548;28;20518;-65
2022/03/20 01:36:46;;;;;;;26.80;18.93;;;3.50;99.90;;;;;;5051496;28;20478;-65
2022/03/20 01:39:15;;;;;;;24.90;20.03;;;3.50;99.90;;;;;;5051882;28;20881;-65
2022/03/20 01:41:43;;;;;;;22.47;18.10;;;3.50;99.90;;;;;;5051500;28;20707;-65
2022/03/20 01:44:10;;;;;;;27.10;20.23;;;3.60;99.90;;;;;;5051302;28;20447;-65
2022/03/20 01:46:37;;;;;;;22.30;18.37;;;3.60;99.90;;;;;;5051354;28;20460;-65
2022/03/20 01:49:05;;;;;;;24.43;17.80;;;3.50;99.90;;;;;;5051740;28;20452;-64
2022/03/20 01:54:17;;;;;;;25.20;18.63;;;3.60;99.90;;;;;;5049987;28;20427;-64
2022/03/20 01:56:46;;;;;;;22.23;18.37;;;3.60;99.90;;;;;;5051231;28;20510;-64
2022/03/20 01:59:14;;;;;;;24.70;19.00;;;3.60;99.90;;;;;;5051655;28;20452;-65
2022/03/20 02:01:41;;;;;;;22.87;19.80;;;3.60;99.90;;;;;;5051424;28;20543;-65
2022/03/20 02:04:13;;;;;;;24.37;18.97;;;3.70;99.90;;;;;;5051029;28;20815;-63
2022/03/20 02:06:41;;;;;;;24.73;19.90;;;3.70;99.90;;;;;;5051211;28;20472;-65
2022/03/20 02:09:08;;;;;;;26.23;20.00;;;3.70;99.90;;;;;;5051654;28;20447;-64
2022/03/20 02:11:35;;;;;;;21.70;18.50;;;3.60;99.90;;;;;;5051303;28;20483;-64
2022/03/20 02:14:02;;;;;;;24.47;20.43;;;3.60;99.90;;;;;;5051278;28;20451;-65
2022/03/20 02:16:29;;;;;;;25.17;18.67;;;3.70;99.90;;;;;;5050667;28;20452;-65
2022/03/20 02:18:56;;;;;;;25.13;19.83;;;3.70;99.90;;;;;;5051197;28;20444;-64
2022/03/20 02:21:40;;;;;;;24.90;19.90;;;3.70;99.90;;;;;;5051215;28;20527;-65
2022/03/20 02:24:32;;;;;;;25.10;19.60;;;3.70;99.90;;;;;;5050296;28;20455;-64
2022/03/20 02:27:04;;;;;;;26.70;20.50;;;3.60;99.90;;;;;;5050564;28;20468;-64
2022/03/20 02:29:31;;;;;;;24.17;19.90;;;3.60;99.90;;;;;;5050617;28;20840;-65
2022/03/20 02:31:59;;;;;;;22.30;18.03;;;3.70;99.90;;;;;;5050647;28;20483;-65
2022/03/20 02:34:26;;;;;;;25.10;19.83;;;3.70;99.90;;;;;;5049884;28;20453;-64
2022/03/20 02:36:55;;;;;;;23.87;18.80;;;3.70;99.90;;;;;;5050473;28;20954;-64
2022/03/20 02:39:22;;;;;;;22.70;18.70;;;3.70;99.90;;;;;;5050633;28;20482;-65
2022/03/20 02:41:50;;;;;;;21.70;18.77;;;3.70;99.90;;;;;;5050657;28;20451;-65
2022/03/20 02:44:17;;;;;;;21.97;18.13;;;3.60;99.90;;;;;;5049896;28;20949;-64
2022/03/20 02:46:44;;;;;;;24.37;19.33;;;3.60;99.90;;;;;;5049941;28;20475;-65
2022/03/20 02:49:11;;;;;;;26.17;20.23;;;3.60;99.90;;;;;;5050542;28;20458;-65
2022/03/20 02:51:38;;;;;;;25.43;19.50;;;3.60;99.90;;;;;;5050407;28;20480;-65
2022/03/20 02:54:07;;;;;;;20.83;17.50;;;3.60;99.90;;;;;;5049451;28;20449;-65
2022/03/20 02:56:34;;;;;;;23.43;19.03;;;3.60;99.90;;;;;;5049747;28;20483;-66
2022/03/20 02:59:02;;;;;;;22.50;18.63;;;3.60;99.90;;;;;;5050423;28;20554;-65
2022/03/20 03:01:29;;;;;;;23.33;17.47;;;3.60;99.90;;;;;;5050158;28;20977;-65
2022/03/20 03:03:56;;;;;;;21.80;19.20;;;3.60;99.90;;;;;;5050307;28;20502;-63
2022/03/20 03:06:23;;;;;;;27.30;19.67;;;3.60;99.90;;;;;;5048715;28;20458;-64
2022/03/20 03:11:35;;;;;;;23.60;18.87;;;3.70;99.90;;;;;;5050132;28;20985;-65
2022/03/20 03:15:18;;;;;;;23.67;20.30;;;3.70;99.90;;;;;;5050072;28;20452;-64
2022/03/20 03:16:49;;;;;;;24.53;20.93;;;3.60;99.90;;;;;;5049275;28;20989;-65
2022/03/20 03:19:16;;;;;;;24.37;20.60;;;3.60;99.90;;;;;;5050061;28;20527;-66
2022/03/20 03:21:43;;;;;;;22.07;18.97;;;3.60;99.90;;;;;;5050057;28;20482;-65
2022/03/20 03:24:09;;;;;;;23.67;20.20;;;3.60;99.90;;;;;;5049298;28;20448;-64
2022/03/20 03:26:38;;;;;;;22.73;19.13;;;3.60;99.90;;;;;;5049524;28;20444;-65
2022/03/20 03:29:05;;;;;;;24.80;19.40;;;3.60;99.90;;;;;;5049991;28;20444;-64
2022/03/20 03:31:32;;;;;;;29.20;20.53;;;3.50;99.90;;;;;;5049888;28;21010;-64
2022/03/20 03:36:43;;;;;;;25.10;19.37;;;3.60;99.90;;;;;;5049268;28;20513;-63
2022/03/20 03:39:11;;;;;;;24.10;19.10;;;3.70;99.90;;;;;;5049752;28;20451;-64
2022/03/20 03:41:39;;;;;;;25.50;18.20;;;3.70;99.90;;;;;;5049845;28;20509;-64
2022/03/20 03:44:06;;;;;;;21.03;18.13;;;3.70;99.90;;;;;;5049048;28;20456;-63
2022/03/20 03:46:32;;;;;;;24.63;19.40;;;3.80;99.90;;;;;;5049065;28;20467;-64
2022/03/20 03:49:00;;;;;;;26.23;18.70;;;3.90;99.90;;;;;;5049865;28;20455;-63
2022/03/20 03:51:26;;;;;;;21.97;18.20;;;4.00;99.90;;;;;;5049266;28;20946;-64
2022/03/20 03:53:53;;;;;;;24.10;19.63;;;3.80;99.90;;;;;;5049569;28;20456;-64
2022/03/20 03:56:20;;;;;;;23.53;19.90;;;3.90;99.90;;;;;;5048420;28;20843;-64
2022/03/20 03:58:48;;;;;;;23.33;18.97;;;3.90;99.90;;;;;;5049492;28;20455;-65
2022/03/20 04:01:15;;;;;;;24.90;20.03;;;3.90;99.90;;;;;;5049369;28;20535;-65
2022/03/20 04:03:42;;;;;;;24.67;20.47;;;4.00;99.90;;;;;;5049455;28;20447;-65
2022/03/20 04:06:09;;;;;;;23.00;18.87;;;4.10;99.90;;;;;;5048539;28;20544;-65
2022/03/20 04:08:36;;;;;;;24.17;18.83;;;4.20;99.90;;;;;;5049271;28;21208;-65
2022/03/20 04:11:03;;;;;;;26.67;17.67;;;4.10;99.90;;;;;;5049478;28;20451;-64
2022/03/20 04:13:30;;;;;;;24.13;18.10;;;4.10;99.90;;;;;;5049227;28;21035;-65
2022/03/20 04:15:58;;;;;;;23.67;19.70;;;4.10;99.90;;;;;;5048210;28;20455;-65
2022/03/20 04:18:25;;;;;;;21.03;18.43;;;4.20;99.90;;;;;;5051499;28;20550;-64
2022/03/20 04:20:52;;;;;;;22.97;18.90;;;4.20;99.90;;;;;;5053568;28;20455;-65
2022/03/20 04:26:04;;;;;;;22.30;18.50;;;4.30;99.90;;;;;;5049826;28;20564;-65
2022/03/20 04:28:31;;;;;;;21.77;18.23;;;4.20;99.90;;;;;;5047233;28;21186;-64
2022/03/20 04:30:59;;;;;;;23.23;19.83;;;4.10;99.90;;;;;;5052625;28;20443;-64
2022/03/20 04:33:27;;;;;;;23.50;16.90;;;4.10;99.90;;;;;;5052755;28;20491;-65
2022/03/20 04:35:54;;;;;;;25.40;18.93;;;4.20;99.90;;;;;;5051730;28;20448;-65
2022/03/20 04:38:21;;;;;;;25.47;18.93;;;4.10;99.90;;;;;;5052753;28;20463;-64
2022/03/20 04:40:48;;;;;;;20.90;18.07;;;4.00;99.90;;;;;;5052543;28;20455;-65
2022/03/20 04:43:17;;;;;;;23.73;19.90;;;4.00;99.90;;;;;;5052948;28;20873;-65
2022/03/20 04:45:44;;;;;;;21.63;17.23;;;3.90;99.90;;;;;;5051311;28;20829;-65
2022/03/20 04:59:08;;;;;;;23.20;19.03;;;3.70;99.90;;;;;;5052271;28;20447;-64
2022/03/20 05:01:37;;;;;;;24.70;20.20;;;3.70;99.90;;;;;;5051823;28;20452;-64
2022/03/20 05:04:06;;;;;;;24.73;19.83;;;3.70;99.90;;;;;;5051806;28;20452;-64
2022/03/20 05:06:32;;;;;;;23.47;19.30;;;3.80;99.90;;;;;;5051682;28;20608;-64
2022/03/20 05:13:19;;;;;;;24.93;19.33;;;3.80;99.90;;;;;;5051994;28;20443;-65
2022/03/20 05:14:42;;;;;;;24.40;19.57;;;4.00;99.90;;;;;;5051163;28;20893;-64
2022/03/20 05:17:10;;;;;;;24.23;20.03;;;4.10;99.90;;;;;;5051363;28;20483;-65
2022/03/20 05:19:40;;;;;;;25.27;21.07;;;4.30;99.90;;;;;;5051907;28;20459;-64
2022/03/20 05:22:09;;;;;;;24.90;19.37;;;4.40;99.90;;;;;;5051523;28;20444;-63
2022/03/20 05:24:36;;;;;;;24.57;20.60;;;4.40;99.90;;;;;;5050764;28;20459;-63
2022/03/20 05:27:03;;;;;;;23.83;19.73;;;4.40;99.90;;;;;;5053949;28;20550;-62
2022/03/20 05:29:30;;;;;;;23.40;18.37;;;4.30;99.90;;;;;;5051640;28;20456;-64
2022/03/20 05:31:57;;;;;;;25.50;20.20;;;4.40;99.90;;;;;;5051577;28;20452;-65
2022/03/20 05:34:25;;;;;;;27.87;21.00;;;4.30;99.90;;;;;;5051147;28;21005;-65
2022/03/20 05:36:53;;;;;;;20.90;18.20;;;4.40;99.90;;;;;;5050919;28;20475;-65
2022/03/20 05:39:20;;;;;;;25.20;20.70;;;4.40;99.90;;;;;;5051561;28;20816;-64
2022/03/20 05:41:51;;;;;;;24.23;19.27;;;4.40;99.90;;;;;;5051464;28;20454;-64
2022/03/20 05:44:19;;;;;;;25.53;20.70;;;4.40;99.90;;;;;;5050928;28;20448;-65
2022/03/20 05:46:48;;;;;;;25.57;19.73;;;4.60;99.90;;;;;;5050975;28;20482;-65
2022/03/20 05:49:16;;;;;;;23.77;20.17;;;4.60;99.90;;;;;;5051177;28;20825;-64
2022/03/20 05:51:43;;;;;;;25.70;18.33;;;4.70;99.90;;;;;;5051137;28;20460;-65
2022/03/20 05:54:11;;;;;;;24.70;19.40;;;4.80;99.90;;;;;;5050559;28;20561;-64
2022/03/20 05:59:23;;;;;;;24.60;19.33;;;5.00;99.90;;;;;;5051177;28;20518;-64
2022/03/20 06:01:50;;;;;;;28.23;22.33;;;5.10;99.90;;;;;;5051107;28;20452;-65
2022/03/20 06:04:17;;;;;;;27.43;21.67;;;5.30;99.90;;;;;;5050204;28;20538;-63
2022/03/20 06:06:44;;;;;;;24.20;20.37;;;5.50;99.90;;;;;;5050824;28;20470;-65
2022/03/20 06:09:13;;;;;;;28.93;23.00;;;5.60;99.90;;;;;;5051178;28;20933;-65
2022/03/20 06:11:39;;;;;;;25.53;19.90;;;5.70;99.90;;;;;;5051023;28;20448;-65
2022/03/20 06:14:08;;;;;;;26.00;20.60;;;5.70;99.90;;;;;;5050348;28;20488;-65
2022/03/20 06:16:35;;;;;;;26.70;22.40;;;5.80;99.90;;;;;;5050521;28;20487;-65
2022/03/20 06:19:02;;;;;;;24.40;20.50;;;5.90;99.90;;;;;;5051054;28;20463;-65
2022/03/20 06:21:29;;;;;;;22.67;20.03;;;5.80;99.90;;;;;;5051074;28;20452;-64
2022/03/20 06:23:57;;;;;;;24.80;20.53;;;5.80;99.90;;;;;;5050769;28;20479;-64
2022/03/20 06:26:25;;;;;;;27.23;20.23;;;5.90;99.90;;;;;;5051603;28;21153;-64
2022/03/20 06:28:53;;;;;;;25.03;20.40;;;6.00;99.90;;;;;;5050639;28;20459;-65
2022/03/20 06:31:20;;;;;;;26.57;20.97;;;6.20;99.90;;;;;;5050656;28;20459;-65
2022/03/20 06:33:47;;;;;;;27.63;21.27;;;6.40;99.90;;;;;;5050530;28;20487;-65
2022/03/20 06:36:15;;;;;;;24.83;21.10;;;6.50;99.90;;;;;;5049320;28;20467;-65
2022/03/20 06:38:42;;;;;;;27.50;23.20;;;6.60;99.90;;;;;;5050335;28;20476;-65
2022/03/20 06:41:10;;;;;;;28.37;22.20;;;6.70;99.90;;;;;;5049398;28;20538;-64
2022/03/20 06:43:38;;;;;;;30.13;23.20;;;6.70;99.90;;;;;;5050052;28;20448;-64
2022/03/20 06:46:06;;;;;;;26.50;21.53;;;6.70;99.90;;;;;;5048948;28;20837;-65
2022/03/20 06:48:33;;;;;;;25.70;21.40;;;6.80;99.90;;;;;;5050250;28;20480;-65
2022/03/20 06:51:00;;;;;;;26.97;22.03;;;6.90;99.90;;;;;;5049961;28;20444;-65
2022/03/20 06:53:29;;;;;;;26.77;21.87;;;7.00;99.90;;;;;;5049988;28;20487;-65
2022/03/20 06:55:56;;;;;;;27.60;23.27;;;7.10;99.90;;;;;;5050382;28;20456;-65
2022/03/20 06:58:23;;;;;;;30.47;25.03;;;7.30;99.90;;;;;;5052725;28;20480;-62
2022/03/20 07:00:52;;;;;;;28.50;22.93;;;7.40;99.90;;;;;;5049937;28;20448;-65
2022/03/20 07:03:18;;;;;;;28.00;22.93;;;7.50;99.90;;;;;;5049894;28;20832;-65
2022/03/20 07:05:45;;;;;;;27.30;22.83;;;7.60;99.90;;;;;;5048666;28;20470;-65
2022/03/20 07:08:12;;;;;;;28.93;23.37;;;7.70;99.90;;;;;;5049482;28;20467;-64
2022/03/20 07:10:39;;;;;;;29.73;25.60;;;7.80;99.90;;;;;;5049748;28;20451;-64
2022/03/20 07:15:53;;;;;;;28.53;23.50;;;7.90;99.90;;;;;;5048703;28;20795;-64
2022/03/20 07:18:21;;;;;;;30.67;22.83;;;7.90;99.90;;;;;;5049335;28;20480;-65
2022/03/20 07:20:49;;;;;;;26.47;22.40;;;7.80;99.90;;;;;;5049558;28;20448;-65
2022/03/20 07:23:17;;;;;;;24.43;21.50;;;7.80;99.90;;;;;;5049176;28;20540;-65
2022/03/20 07:31:16;;;;;;;27.93;22.30;;;8.00;99.90;;;;;;5046271;28;20419;-65
2022/03/20 07:33:43;;;;;;;26.50;23.00;;;8.10;99.90;;;;;;5048964;28;20563;-65
2022/03/20 07:36:10;;;;;;;25.43;22.63;;;8.10;99.90;;;;;;5048490;28;20452;-65
2022/03/20 07:38:37;;;;;;;26.10;22.50;;;8.20;99.90;;;;;;5049248;28;20468;-65
2022/03/20 07:41:04;;;;;;;27.03;22.40;;;8.30;99.90;;;;;;5049117;28;20942;-65
2022/03/20 07:43:31;;;;;;;27.07;22.63;;;8.30;99.90;;;;;;5049347;28;20459;-64
2022/03/20 07:45:58;;;;;;;29.33;23.03;;;8.40;99.90;;;;;;5048080;28;20462;-65
2022/03/20 07:48:26;;;;;;;27.30;21.60;;;8.50;99.90;;;;;;5048987;28;21000;-65
2022/03/20 07:50:53;;;;;;;25.80;21.53;;;8.60;99.90;;;;;;5049014;28;20456;-65
2022/03/20 07:53:20;;;;;;;27.33;23.90;;;8.70;99.90;;;;;;5051648;28;20915;-63
2022/03/20 07:55:47;;;;;;;27.33;23.07;;;8.80;99.90;;;;;;5052874;28;20452;-66
2022/03/20 07:58:18;;;;;;;27.80;22.33;;;8.90;99.90;;;;;;5057070;28;20486;-65
2022/03/20 08:00:45;;;;;;;28.97;23.30;;;9.00;99.90;;;;;;5053213;28;20799;-65
2022/03/20 08:03:12;;;;;;;27.20;22.30;;;9.10;99.90;;;;;;5053620;28;20452;-65
2022/03/20 08:05:40;;;;;;;26.63;23.57;;;9.20;99.90;;;;;;5052231;28;20862;-64
2022/03/20 08:08:09;;;;;;;26.30;22.37;;;9.20;99.90;;;;;;5053116;28;20459;-65
2022/03/20 08:10:35;;;;;;;28.90;23.07;;;9.30;99.90;;;;;;5053131;28;20452;-64
2022/03/20 08:13:02;;;;;;;26.47;21.43;;;9.50;99.90;;;;;;5052875;28;20494;-65
2022/03/20 08:15:29;;;;;;;28.13;23.33;;;9.60;99.90;;;;;;5051687;28;20452;-65
2022/03/20 08:17:56;;;;;;;26.80;23.93;;;9.70;99.90;;;;;;5052811;28;20479;-64
2022/03/20 08:20:23;;;;;;;26.20;23.27;;;9.80;99.80;;;;;;5053175;28;20464;-66
2022/03/20 08:22:52;;;;;;;26.10;21.67;;;10.00;99.00;;;;;;5052898;28;20444;-64
2022/03/20 08:25:18;;;;;;;26.60;21.90;;;10.10;99.00;;;;;;5051616;28;20458;-63
2022/03/20 08:27:46;;;;;;;26.23;22.30;;;10.40;98.00;;;;;;5053404;28;20526;-64
2022/03/20 08:30:15;;;;;;;24.00;20.60;;;10.50;97.60;;;;;;5052590;28;20543;-64
2022/03/20 08:32:42;;;;;;;26.53;22.53;;;10.60;97.60;;;;;;5052537;28;20456;-64
2022/03/20 08:35:13;;;;;;;25.83;23.07;;;10.70;97.60;;;;;;5051933;28;21036;-65
2022/03/20 08:37:43;;;;;;;25.23;22.53;;;10.90;96.30;;;;;;5052375;28;20476;-64
2022/03/20 08:40:15;;;;;;;28.50;23.80;;;11.00;95.90;;;;;;5052490;28;20517;-65
2022/03/20 08:42:43;;;;;;;27.97;23.57;;;11.20;96.00;;;;;;5052056;28;20469;-63
2022/03/20 08:45:11;;;;;;;25.40;22.53;;;11.20;96.30;;;;;;5051665;28;20452;-63
2022/03/20 08:47:38;;;;;;;26.47;21.70;;;11.30;95.90;;;;;;5051760;28;20483;-64
2022/03/20 08:50:06;;;;;;;27.20;24.30;;;11.30;95.60;;;;;;5052157;28;20452;-62
2022/03/20 08:52:33;;;;;;;30.07;25.43;;;11.30;95.30;;;;;;5052119;28;20455;-64
2022/03/20 08:55:00;;;;;;;26.30;22.50;;;11.40;94.50;;;;;;5051014;28;20498;-60
2022/03/20 08:57:28;;;;;;;25.90;22.33;;;11.50;94.90;;;;;;5055879;28;20526;-65
2022/03/20 08:59:55;;;;;;;28.00;22.10;;;11.70;95.30;;;;;;5052052;28;20459;-64
2022/03/20 09:02:22;;;;;;;25.53;19.93;;;11.80;94.20;;;;;;5052021;28;20459;-61
2022/03/20 09:04:49;;;;;;;24.93;21.83;;;12.10;93.90;;;;;;5050497;28;20452;-64
2022/03/20 09:07:16;;;;;;;30.23;24.43;;;12.20;93.00;;;;;;5051466;28;20484;-65
2022/03/20 09:09:43;;;;;;;28.43;21.90;;;12.40;93.20;;;;;;5049492;28;20448;-60
2022/03/20 09:12:11;;;;;;;26.97;23.00;;;12.50;93.30;;;;;;5051073;28;21013;-60
2022/03/20 09:14:39;;;;;;;25.20;22.60;;;12.60;92.10;;;;;;5051088;28;20493;-64
2022/03/20 09:19:54;;;;;;;27.03;22.77;;;13.20;91.20;;;;;;5051501;28;20431;-63
2022/03/20 09:22:21;;;;;;;26.37;22.47;;;13.50;90.40;;;;;;5051550;28;20456;-64
2022/03/20 09:24:47;;;;;;;24.33;21.80;;;13.90;88.50;;;;;;5051022;28;20440;-64
2022/03/20 09:27:14;;;;;;;26.60;23.83;;;14.10;89.30;;;;;;5051148;28;20467;-64
2022/03/20 09:29:42;;;;;;;25.23;22.50;;;14.40;87.30;;;;;;5050534;28;20451;-64
2022/03/20 09:32:10;;;;;;;24.90;22.40;;;14.50;87.00;;;;;;5050776;28;20440;-65
2022/03/20 09:34:37;;;;;;;27.53;24.53;;;14.90;86.70;;;;;;5050467;28;20492;-64
2022/03/20 09:37:05;;;;;;;32.33;23.53;;;15.10;83.70;;;;;;5051039;28;20476;-65
2022/03/20 09:39:32;;;;;;;25.07;22.67;;;15.40;85.00;;;;;;5051757;28;20456;-64
2022/03/20 09:42:00;;;;;;;26.17;23.23;;;15.50;85.00;;;;;;5051302;28;20547;-64
2022/03/20 09:44:27;;;;;;;27.10;24.30;;;15.70;82.90;;;;;;5050641;28;20452;-64
2022/03/20 09:46:55;;;;;;;27.63;24.77;;;15.70;83.40;;;;;;5050601;28;20575;-63
2022/03/20 09:49:25;;;;;;;27.20;24.33;;;16.00;82.80;;;;;;5051107;28;20530;-64
2022/03/20 09:51:52;;;;;;;26.73;23.90;;;16.10;82.20;;;;;;5051495;28;20950;-65
2022/03/20 09:54:19;;;;;;;26.93;24.20;;;16.40;80.70;;;;;;5051047;28;20479;-64
2022/03/20 09:56:51;;;;;;;26.17;23.37;;;16.60;79.10;;;;;;5054828;28;21049;-64
2022/03/20 09:59:18;;;;;;;27.73;25.00;;;16.90;79.70;;;;;;5051225;28;20896;-64
2022/03/20 10:01:44;;;;;;;25.03;22.40;;;16.90;77.30;;;;;;5051324;28;20456;-64
2022/03/20 10:04:14;;;;;;;24.60;22.10;;;17.10;77.30;;;;;;5050531;28;20451;-63
2022/03/20 10:06:43;;;;;;;26.40;23.43;;;17.20;76.20;;;;;;5050725;28;20463;-64
2022/03/20 10:09:12;;;;;;;23.77;21.27;;;17.10;78.40;;;;;;5051043;28;20458;-63
2022/03/20 10:11:41;;;;;;;25.70;22.90;;;17.30;75.40;;;;;;5050935;28;20444;-64
2022/03/20 10:14:18;;;;;;;25.13;22.57;;;17.40;74.80;;;;;;5049948;28;20491;-65
2022/03/20 10:16:48;;;;;;;25.87;23.17;;;17.40;74.30;;;;;;5049750;28;20835;-64
2022/03/20 10:19:30;;;;;;;25.23;22.77;;;17.50;74.30;;;;;;5050716;28;20926;-64
2022/03/20 10:21:59;;;;;;;31.57;24.90;;;17.70;74.40;;;;;;5050580;28;20529;-65
2022/03/20 10:24:29;;;;;;;26.50;23.70;;;18.00;73.10;;;;;;5049669;28;20985;-64
2022/03/20 10:27:09;;;;;;;27.23;24.33;;;17.90;73.20;;;;;;5050114;28;20575;-64
2022/03/20 10:29:46;;;;;;;25.00;22.10;;;18.00;73.60;;;;;;5050379;28;20493;-63
2022/03/20 10:32:13;;;;;;;26.93;24.10;;;17.90;71.50;;;;;;5050380;28;20443;-65
2022/03/20 10:34:56;;;;;;;24.60;22.10;;;17.30;68.80;;;;;;5049525;28;20488;-65
2022/03/20 10:37:45;;;;;;;27.40;24.40;;;16.90;72.20;;;;;;5049946;28;20499;-64
2022/03/20 10:40:14;;;;;;;25.33;22.00;;;16.80;70.50;;;;;;5050413;28;20479;-65
2022/03/20 10:42:42;;;;;;;26.03;23.23;;;16.50;71.40;;;;;;5050019;28;21056;-64
2022/03/20 10:45:09;;;;;;;24.67;22.10;;;16.50;75.00;;;;;;5049309;28;20542;-64
2022/03/20 10:47:36;;;;;;;24.83;22.33;;;17.00;77.10;;;;;;5049327;28;20484;-64
2022/03/20 10:50:07;;;;;;;26.00;23.20;;;17.00;70.50;;;;;;5050261;28;20450;-63
2022/03/20 10:52:36;;;;;;;26.10;22.30;;;16.90;71.20;;;;;;5050106;28;20452;-65
2022/03/20 10:55:09;;;;;;;27.03;23.63;;;16.70;73.80;;;;;;5049174;28;20531;-65
2022/03/20 10:57:36;;;;;;;25.03;22.40;;;16.70;71.10;;;;;;5052362;28;20472;-64
2022/03/20 11:00:07;;;;;;;25.77;22.03;;;16.40;72.60;;;;;;5049680;28;20506;-64
2022/03/20 11:02:39;;;;;;;26.27;22.70;;;16.20;73.00;;;;;;5049785;28;20444;-65
2022/03/20 11:05:09;;;;;;;29.43;23.50;;;16.20;75.10;;;;;;5048999;28;20487;-64
2022/03/20 11:07:37;;;;;;;26.93;22.70;;;16.30;74.10;;;;;;5043083;28;20467;-64
2022/03/20 11:10:10;;;;;;;25.40;22.70;;;16.20;74.70;;;;;;5043528;28;20450;-64
2022/03/20 11:12:37;;;;;;;27.97;23.70;;;16.50;74.30;;;;;;5043954;28;20448;-65
2022/03/20 11:15:07;;;;;;;28.30;23.37;;;17.20;76.10;;;;;;5048935;28;20527;-65
2022/03/20 11:17:38;;;;;;;25.30;22.60;;;18.50;75.00;;;;;;5049386;28;20475;-65
2022/03/20 11:20:08;;;;;;;25.90;22.73;;;19.50;67.90;;;;;;5049738;28;20451;-65
2022/03/20 11:22:38;;;;;;;26.17;22.97;;;20.10;69.70;;;;;;5049720;28;20521;-65
2022/03/20 11:25:07;;;;;;;24.03;21.43;;;20.50;69.40;;;;;;5048476;28;20455;-65
2022/03/20 11:27:35;;;;;;;23.80;21.50;;;20.70;66.90;;;;;;5048780;28;20468;-65
2022/03/20 11:30:05;;;;;;;23.17;20.77;;;21.20;67.10;;;;;;5049233;28;20450;-65
2022/03/20 11:32:32;;;;;;;25.40;22.27;;;21.50;67.60;;;;;;5049709;28;20456;-65
2022/03/20 11:35:00;;;;;;;22.67;20.33;;;21.40;66.70;;;;;;5048458;28;20484;-64
2022/03/20 11:37:42;;;;;;;23.80;21.40;;;21.00;65.90;;;;;;5048950;28;20467;-64
2022/03/20 11:40:12;;;;;;;24.57;21.33;;;21.00;67.00;;;;;;5049504;28;20460;-65
2022/03/20 11:42:39;;;;;;;26.53;23.47;;;21.20;66.10;;;;;;5049551;28;20436;-65
2022/03/20 11:45:16;;;;;;;24.13;21.17;;;22.00;62.00;;;;;;5048650;28;20926;-65
2022/03/20 11:47:44;;;;;;;24.30;21.90;;;23.20;62.50;;;;;;5049137;28;20869;-65
2022/03/20 11:50:17;;;;;;;24.00;21.50;;;23.70;59.80;;;;;;5049367;28;20966;-65
2022/03/20 11:52:54;;;;;;;24.20;20.47;;;24.80;57.50;;;;;;5049699;28;20451;-64
2022/03/20 11:55:30;;;;;;;21.57;19.37;;;25.50;55.70;;;;;;5048489;28;21142;-65
2022/03/20 11:57:59;;;;;;;20.83;18.60;;;25.80;54.90;;;;;;5051743;28;20476;-64
2022/03/20 12:00:28;;;;;;;22.40;20.03;;;26.10;52.00;;;;;;5049048;28;20444;-65
2022/03/20 12:03:48;;;;;;;20.93;18.73;;;25.90;50.40;;;;;;5049399;28;20480;-64
2022/03/20 12:06:57;;;;;;;21.60;18.90;;;25.30;51.40;;;;;;5041779;28;20444;-64
2022/03/20 12:09:42;;;;;;;20.60;18.57;;;25.80;52.20;;;;;;5039548;28;20459;-65
2022/03/20 12:12:27;;;;;;;21.27;19.07;;;26.00;51.80;;;;;;5035911;28;20995;-64
2022/03/20 12:14:56;;;;;;;25.00;22.40;;;26.20;50.40;;;;;;5040963;28;20591;-64
2022/03/20 12:17:23;;;;;;;22.50;20.07;;;25.60;52.70;;;;;;5040144;28;20487;-65
2022/03/20 12:19:53;;;;;;;22.37;20.10;;;25.10;52.20;;;;;;5040246;28;20478;-65
2022/03/20 12:22:30;;;;;;;22.23;19.97;;;25.10;52.40;;;;;;5037757;28;20535;-65
2022/03/20 12:25:01;;;;;;;20.97;18.77;;;24.00;51.00;;;;;;5039157;28;20547;-62
2022/03/20 12:27:45;;;;;;;24.80;20.17;;;24.30;51.50;;;;;;5045145;28;20483;-65
2022/03/20 12:30:33;;;;;;;19.97;17.27;;;24.20;51.30;;;;;;5040111;28;20468;-63
2022/03/20 12:33:02;;;;;;;20.77;18.07;;;24.10;53.80;;;;;;5037279;28;20452;-65
2022/03/20 12:35:42;;;;;;;21.60;17.57;;;24.70;51.90;;;;;;5042888;28;20487;-65
2022/03/20 12:38:29;;;;;;;18.00;16.10;;;25.30;52.10;;;;;;5042919;28;20507;-65
2022/03/20 12:41:06;;;;;;;18.60;16.43;;;26.40;51.10;;;;;;5046303;28;20912;-65
2022/03/20 12:43:33;;;;;;;17.53;15.80;;;27.60;49.60;;;;;;5044547;28;20467;-67
2022/03/20 12:46:01;;;;;;;17.83;15.97;;;26.20;47.80;;;;;;5049949;28;20476;-65
2022/03/20 12:48:31;;;;;;;17.33;15.37;;;25.20;50.40;;;;;;5050397;28;20563;-66
2022/03/20 12:51:00;;;;;;;17.10;15.33;;;25.10;50.50;;;;;;5048434;28;20479;-65
2022/03/20 12:53:38;;;;;;;21.87;15.43;;;24.10;48.80;;;;;;5044171;28;20456;-65
2022/03/20 12:56:14;;;;;;;19.40;16.90;;;24.60;51.50;;;;;;5048396;28;20538;-66
2022/03/20 12:58:43;;;;;;;18.93;16.83;;;24.20;50.50;;;;;;5044426;28;20490;-65
2022/03/20 13:01:11;;;;;;;19.97;17.67;;;22.80;50.30;;;;;;5042888;28;20458;-63
2022/03/20 13:03:38;;;;;;;18.40;15.50;;;22.10;52.60;;;;;;5044009;28;21345;-66
2022/03/20 13:06:05;;;;;;;23.30;15.70;;;22.60;55.80;;;;;;5042563;28;20495;-67
2022/03/20 13:08:34;;;;;;;21.20;16.03;;;23.70;53.70;;;;;;5041551;28;20475;-65
2022/03/20 13:11:05;;;;;;;18.60;16.00;;;25.20;52.20;;;;;;5039406;28;20460;-67
2022/03/20 13:13:34;;;;;;;22.83;16.03;;;26.20;49.20;;;;;;5041709;28;21019;-66
2022/03/20 13:16:02;;;;;;;17.77;15.97;;;27.00;47.70;;;;;;5041210;28;20444;-67
2022/03/20 13:18:30;;;;;;;18.17;16.23;;;27.50;46.40;;;;;;5040483;28;20835;-66
2022/03/20 13:20:58;;;;;;;18.27;16.17;;;27.90;46.40;;;;;;5040796;28;20550;-65